createdAt,value
2022-12-14T00:01:58.768Z,5.04
2022-12-14T00:04:44.601Z,5.07
2022-12-14T00:07:30.732Z,5.10
2022-12-14T00:10:16.904Z,5.13
2022-12-14T00:13:03.375Z,5.18
2022-12-14T00:15:49.460Z,5.06
2022-12-14T00:18:35.420Z,5.10
2022-12-14T00:21:21.967Z,5.11
2022-12-14T00:24:08.100Z,5.01
2022-12-14T00:26:54.218Z,5.07
2022-12-14T00:29:40.183Z,5.01
2022-12-14T00:32:26.497Z,5.06
2022-12-14T00:35:15.457Z,5.11
2022-12-14T00:38:01.543Z,5.01
2022-12-14T00:40:47.390Z,5.08
2022-12-14T00:43:33.229Z,4.96
2022-12-14T00:46:19.370Z,5.06
2022-12-14T00:49:05.426Z,5.04
2022-12-14T00:51:51.324Z,5.08
2022-12-14T00:54:37.260Z,4.97
2022-12-14T00:57:23.065Z,5.11
2022-12-14T01:00:09.632Z,5.00
2022-12-14T01:02:55.838Z,5.08
2022-12-14T01:05:41.717Z,5.07
2022-12-14T01:08:37.994Z,5.07
2022-12-14T01:11:24.143Z,5.05
2022-12-14T01:14:10.989Z,4.93
2022-12-14T01:16:57.401Z,5.01
2022-12-14T01:19:43.305Z,5.04
2022-12-14T01:22:29.274Z,5.01
2022-12-14T01:25:14.991Z,5.01
2022-12-14T01:28:01.078Z,4.92
2022-12-14T01:30:46.937Z,5.07
2022-12-14T01:33:32.976Z,5.03
2022-12-14T01:36:37.505Z,5.02
2022-12-14T01:39:23.715Z,5.03
2022-12-14T01:42:13.792Z,5.03
2022-12-14T01:44:59.639Z,4.98
2022-12-14T01:47:50.703Z,5.10
2022-12-14T01:50:40.922Z,5.04
2022-12-14T01:53:27.207Z,5.03
2022-12-14T01:56:14.644Z,5.09
2022-12-14T01:59:03.475Z,5.09
2022-12-14T02:01:50.019Z,5.06
2022-12-14T02:04:39.448Z,5.05
2022-12-14T02:07:26.791Z,5.10
2022-12-14T02:10:13.119Z,4.97
2022-12-14T02:13:07.147Z,4.96
2022-12-14T02:15:54.010Z,5.09
2022-12-14T02:18:40.388Z,5.07
2022-12-14T02:21:47.421Z,5.08
2022-12-14T02:25:07.528Z,5.06
2022-12-14T02:28:02.933Z,5.07
2022-12-14T02:30:57.387Z,5.07
2022-12-14T02:33:54.919Z,4.94
2022-12-14T02:36:41.103Z,5.01
2022-12-14T02:40:03.797Z,5.09
2022-12-14T02:43:13.125Z,5.04
2022-12-14T02:46:27.580Z,5.08
2022-12-14T02:49:19.744Z,5.14
2022-12-14T02:52:24.784Z,5.11
2022-12-14T02:55:18.885Z,5.00
2022-12-14T02:58:27.312Z,4.99
2022-12-14T03:01:16.124Z,5.12
2022-12-14T03:04:03.569Z,5.05
2022-12-14T03:06:58.047Z,5.11
2022-12-14T03:09:44.216Z,5.03
2022-12-14T03:12:30.617Z,5.05
2022-12-14T03:15:18.705Z,5.03
2022-12-14T03:18:06.538Z,5.05
2022-12-14T03:20:54.513Z,5.05
2022-12-14T03:23:43.505Z,5.01
2022-12-14T03:26:30.908Z,5.05
2022-12-14T03:29:29.033Z,4.89
2022-12-14T03:32:20.189Z,5.04
2022-12-14T03:35:23.883Z,5.05
2022-12-14T03:38:33.728Z,4.90
2022-12-14T03:41:29.871Z,4.97
2022-12-14T03:44:51.384Z,4.90
2022-12-14T03:48:03.346Z,4.94
2022-12-14T03:51:14.287Z,4.75
2022-12-14T03:54:19.067Z,4.92
2022-12-14T03:57:07.882Z,4.93
2022-12-14T04:00:04.707Z,4.92
2022-12-14T04:03:12.094Z,4.91
2022-12-14T04:06:18.824Z,4.95
2022-12-14T04:09:10.753Z,4.99
2022-12-14T04:12:25.852Z,4.95
2022-12-14T04:15:44.049Z,4.96
2022-12-14T04:18:59.232Z,4.91
2022-12-14T04:22:16.533Z,4.92
2022-12-14T04:25:23.506Z,4.95
2022-12-14T04:28:35.373Z,4.95
2022-12-14T04:31:24.225Z,4.94
2022-12-14T04:34:12.161Z,4.97
2022-12-14T04:37:01.074Z,4.97
2022-12-14T04:40:14.672Z,4.97
2022-12-14T04:43:08.072Z,4.98
2022-12-14T04:46:28.168Z,4.83
2022-12-14T04:49:21.918Z,4.99
2022-12-14T04:52:31.016Z,4.92
2022-12-14T04:55:23.505Z,4.91
2022-12-14T04:58:20.283Z,4.99
2022-12-14T05:01:20.156Z,5.01
2022-12-14T05:04:18.521Z,5.03
2022-12-14T05:07:22.184Z,5.01
2022-12-14T05:10:37.667Z,4.97
2022-12-14T05:13:35.565Z,5.04
2022-12-14T05:16:23.585Z,5.06
2022-12-14T05:19:10.312Z,5.12
2022-12-14T05:21:56.395Z,5.08
2022-12-14T05:24:42.311Z,5.09
2022-12-14T05:27:28.219Z,5.01
2022-12-14T05:30:14.279Z,5.14
2022-12-14T05:33:00.618Z,5.19
2022-12-14T05:35:46.775Z,5.15
2022-12-14T05:38:32.900Z,5.18
2022-12-14T05:41:19.013Z,5.24
2022-12-14T05:44:04.984Z,5.21
2022-12-14T05:46:51.241Z,5.24
2022-12-14T05:49:37.234Z,5.12
2022-12-14T05:52:26.908Z,5.10
2022-12-14T05:55:13.250Z,5.12
2022-12-14T05:57:59.127Z,5.19
2022-12-14T06:00:45.077Z,5.22
2022-12-14T06:03:31.314Z,5.18
2022-12-14T06:06:17.522Z,5.11
2022-12-14T06:09:07.005Z,5.13
2022-12-14T06:11:53.473Z,5.15
2022-12-14T06:14:39.780Z,5.13
2022-12-14T06:17:25.776Z,5.14
2022-12-14T06:20:12.769Z,5.15
2022-12-14T06:22:58.735Z,5.16
2022-12-14T06:25:44.652Z,5.09
2022-12-14T06:28:30.794Z,5.08
2022-12-14T06:31:28.490Z,4.97
2022-12-14T06:34:14.985Z,5.11
2022-12-14T06:37:01.198Z,5.03
2022-12-14T06:39:53.931Z,5.07
2022-12-14T06:42:40.260Z,5.16
2022-12-14T06:45:26.167Z,5.04
2022-12-14T06:48:12.020Z,5.18
2022-12-14T06:51:02.123Z,5.14
2022-12-14T06:53:51.674Z,5.10
2022-12-14T06:56:38.260Z,5.17
2022-12-14T06:59:24.252Z,5.09
2022-12-14T07:02:11.127Z,5.03
2022-12-14T07:04:57.176Z,5.17
2022-12-14T07:07:43.239Z,5.10
2022-12-14T07:10:29.551Z,5.10
2022-12-14T07:13:15.402Z,5.23
2022-12-14T07:16:02.248Z,5.28
2022-12-14T07:18:49.170Z,5.32
2022-12-14T07:21:35.350Z,5.30
2022-12-14T07:24:21.152Z,5.35
2022-12-14T07:27:07.695Z,5.38
2022-12-14T07:29:53.856Z,5.35
2022-12-14T07:32:39.677Z,5.40
2022-12-14T07:35:25.765Z,5.46
2022-12-14T07:38:12.067Z,5.47
2022-12-14T07:41:10.084Z,5.44
2022-12-14T07:43:57.453Z,5.50
2022-12-14T07:46:43.985Z,5.50
2022-12-14T07:49:29.789Z,5.47
2022-12-14T07:52:17.455Z,5.50
2022-12-14T07:55:03.930Z,5.59
2022-12-14T07:57:49.874Z,5.59
2022-12-14T08:00:35.767Z,5.57
2022-12-14T08:03:21.888Z,5.63
2022-12-14T08:06:08.594Z,5.56
2022-12-14T08:08:55.615Z,5.66
2022-12-14T08:11:41.549Z,5.65
2022-12-14T08:14:27.671Z,5.67
2022-12-14T08:17:13.506Z,5.63
2022-12-14T08:19:59.512Z,5.68
2022-12-14T08:22:45.464Z,5.71
2022-12-14T08:25:31.393Z,5.70
2022-12-14T08:28:17.352Z,5.54
2022-12-14T08:31:06.517Z,5.65
2022-12-14T08:33:52.959Z,5.69
2022-12-14T08:36:39.216Z,5.66
2022-12-14T08:39:25.243Z,5.75
2022-12-14T08:42:11.327Z,5.78
2022-12-14T08:44:57.838Z,5.77
2022-12-14T08:47:43.733Z,5.73
2022-12-14T08:50:29.737Z,5.85
2022-12-14T08:53:15.898Z,5.95
2022-12-14T08:56:12.698Z,5.89
2022-12-14T08:58:58.881Z,5.78
2022-12-14T09:01:44.809Z,5.86
2022-12-14T09:04:30.914Z,5.95
2022-12-14T09:07:16.852Z,6.00
2022-12-14T09:10:03.082Z,5.89
2022-12-14T09:12:49.396Z,5.93
2022-12-14T09:15:35.375Z,5.95
2022-12-14T09:18:21.227Z,6.02
2022-12-14T09:21:08.132Z,5.97
2022-12-14T09:23:59.223Z,6.08
2022-12-14T09:26:46.938Z,6.04
2022-12-14T09:29:33.065Z,6.07
2022-12-14T09:32:19.356Z,6.12
2022-12-14T09:35:05.544Z,6.13
2022-12-14T09:37:52.240Z,6.07
2022-12-14T09:40:39.981Z,6.08
2022-12-14T09:43:36.949Z,6.07
2022-12-14T09:46:47.267Z,6.05
2022-12-14T09:49:42.586Z,6.03
2022-12-14T09:53:00.491Z,6.12
2022-12-14T09:55:48.913Z,6.05
2022-12-14T09:58:35.314Z,6.19
2022-12-14T10:01:22.283Z,6.20
2022-12-14T10:04:29.862Z,6.21
2022-12-14T10:07:22.337Z,6.19
2022-12-14T10:10:26.750Z,6.10
2022-12-14T10:13:39.108Z,6.12
2022-12-14T10:16:51.620Z,6.14
2022-12-14T10:19:53.250Z,6.20
2022-12-14T10:22:43.969Z,6.23
2022-12-14T10:25:32.995Z,6.09
2022-12-14T10:28:21.647Z,6.10
2022-12-14T10:31:15.500Z,6.27
2022-12-14T10:34:20.858Z,6.20
2022-12-14T10:37:20.671Z,6.36
2022-12-14T10:40:17.618Z,6.27
2022-12-14T10:43:46.936Z,6.33
2022-12-14T10:47:05.377Z,6.35
2022-12-14T10:50:16.468Z,6.30
2022-12-14T10:53:03.404Z,6.49
2022-12-14T10:55:52.448Z,6.38
2022-12-14T10:58:38.355Z,6.49
2022-12-14T11:01:24.271Z,6.55
2022-12-14T11:04:30.315Z,6.57
2022-12-14T11:07:18.818Z,6.59
2022-12-14T11:10:19.117Z,6.58
2022-12-14T11:13:07.890Z,6.49
2022-12-14T11:15:53.913Z,6.55
2022-12-14T11:18:40.818Z,6.60
2022-12-14T11:21:38.349Z,6.62
2022-12-14T11:24:27.062Z,6.68
2022-12-14T11:27:14.595Z,6.67
2022-12-14T11:30:00.678Z,6.64
2022-12-14T11:32:47.821Z,6.65
2022-12-14T11:35:34.847Z,6.63
2022-12-14T11:38:21.964Z,6.60
2022-12-14T11:41:11.737Z,6.73
2022-12-14T11:44:16.805Z,6.65
2022-12-14T11:47:12.220Z,6.64
2022-12-14T11:49:58.554Z,6.77
2022-12-14T11:52:44.966Z,6.68
2022-12-14T11:55:31.164Z,6.79
2022-12-14T11:58:29.768Z,6.78
2022-12-14T12:01:19.087Z,6.76
2022-12-14T12:04:12.394Z,6.74
2022-12-14T12:07:04.241Z,6.77
2022-12-14T12:09:51.072Z,6.75
2022-12-14T12:12:37.319Z,6.73
2022-12-14T12:15:30.030Z,6.74
2022-12-14T12:18:15.875Z,6.76
2022-12-14T12:21:18.827Z,6.77
2022-12-14T12:24:27.333Z,6.69
2022-12-14T12:27:17.494Z,6.74
2022-12-14T12:30:24.970Z,6.70
2022-12-14T12:33:29.561Z,6.66
2022-12-14T12:36:23.562Z,6.73
2022-12-14T12:39:16.600Z,6.73
2022-12-14T12:42:13.563Z,6.66
2022-12-14T12:45:14.006Z,6.66
2022-12-14T12:48:05.355Z,6.62
2022-12-14T12:51:03.001Z,6.68
2022-12-14T12:54:01.619Z,6.63
2022-12-14T12:56:50.155Z,6.66
2022-12-14T12:59:48.055Z,6.66
2022-12-14T13:02:44.937Z,6.62
2022-12-14T13:05:49.846Z,6.68
2022-12-14T13:08:39.274Z,6.71
2022-12-14T13:11:31.564Z,6.70
2022-12-14T13:14:42.679Z,6.52
2022-12-14T13:17:55.586Z,6.64
2022-12-14T13:20:41.708Z,6.69
2022-12-14T13:23:44.868Z,6.68
2022-12-14T13:27:16.950Z,6.66
2022-12-14T13:30:18.850Z,6.60
2022-12-14T13:33:19.907Z,6.69
2022-12-14T13:36:20.975Z,6.56
2022-12-14T13:39:25.240Z,6.63
2022-12-14T13:42:30.238Z,6.56
2022-12-14T13:45:27.619Z,6.60
2022-12-14T13:48:28.394Z,6.56
2022-12-14T13:51:31.590Z,6.56
2022-12-14T13:54:46.821Z,6.54
2022-12-14T13:57:32.714Z,6.55
2022-12-14T14:00:43.535Z,6.53
2022-12-14T14:03:35.986Z,6.58
2022-12-14T14:06:38.314Z,6.56
2022-12-14T14:09:30.307Z,6.61
2022-12-14T14:12:36.357Z,6.63
2022-12-14T14:15:32.364Z,6.63
2022-12-14T14:18:25.622Z,6.58
2022-12-14T14:21:20.767Z,6.54
2022-12-14T14:24:12.801Z,6.57
2022-12-14T14:27:17.409Z,6.65
2022-12-14T14:30:20.884Z,6.47
2022-12-14T14:33:47.199Z,6.64
2022-12-14T14:36:36.037Z,6.71
2022-12-14T14:39:55.424Z,6.63
2022-12-14T14:43:28.509Z,6.65
2022-12-14T14:46:22.226Z,6.72
2022-12-14T14:49:22.616Z,6.64
2022-12-14T14:52:38.479Z,6.66
2022-12-14T14:55:52.767Z,6.73
2022-12-14T14:58:41.635Z,6.73
2022-12-14T15:01:29.086Z,6.68
2022-12-14T15:04:21.538Z,6.75
2022-12-14T15:07:16.117Z,6.74
2022-12-14T15:10:29.626Z,6.72
2022-12-14T15:13:25.818Z,6.61
2022-12-14T15:16:28.754Z,6.65
2022-12-14T15:19:33.746Z,6.73
2022-12-14T15:22:22.303Z,6.69
2022-12-14T15:25:31.705Z,6.67
2022-12-14T15:28:20.600Z,6.68
2022-12-14T15:31:06.682Z,6.72
2022-12-14T15:33:52.851Z,6.65
2022-12-14T15:36:42.212Z,6.75
2022-12-14T15:39:39.949Z,6.68
2022-12-14T15:42:27.153Z,6.70
2022-12-14T15:45:16.281Z,6.63
2022-12-14T15:48:30.332Z,6.68
2022-12-14T15:51:17.997Z,6.71
2022-12-14T15:54:06.083Z,6.76
2022-12-14T15:56:55.647Z,6.74
2022-12-14T15:59:43.552Z,6.77
2022-12-14T16:02:32.968Z,6.73
2022-12-14T16:05:22.185Z,6.80
2022-12-14T16:08:09.961Z,6.66
2022-12-14T16:10:58.703Z,6.80
2022-12-14T16:13:45.320Z,6.78
2022-12-14T16:16:31.345Z,6.67
2022-12-14T16:19:28.187Z,6.80
2022-12-14T16:22:29.408Z,6.71
2022-12-14T16:25:19.210Z,6.79
2022-12-14T16:28:41.987Z,6.64
2022-12-14T16:31:28.216Z,6.76
2022-12-14T16:34:16.957Z,6.80
2022-12-14T16:40:32.134Z,6.76
2022-12-14T16:43:28.632Z,6.78
2022-12-14T16:46:16.593Z,6.84
2022-12-14T16:49:30.373Z,6.77
2022-12-14T16:52:17.549Z,6.83
2022-12-14T16:55:15.793Z,6.85
2022-12-14T16:58:02.410Z,6.84
2022-12-14T17:00:58.821Z,6.81
2022-12-14T17:03:51.916Z,6.79
2022-12-14T17:06:46.069Z,6.83
2022-12-14T17:09:33.756Z,6.77
2022-12-14T17:12:19.580Z,6.79
2022-12-14T17:15:05.648Z,6.82
2022-12-14T17:17:54.140Z,6.73
2022-12-14T17:20:40.249Z,6.74
2022-12-14T17:23:26.344Z,6.73
2022-12-14T17:26:19.885Z,6.80
2022-12-14T17:29:11.109Z,6.79
2022-12-14T17:32:01.180Z,6.83
2022-12-14T17:34:47.415Z,6.84
2022-12-14T17:37:36.473Z,6.62
2022-12-14T17:40:23.042Z,6.81
2022-12-14T17:43:13.311Z,6.89
2022-12-14T17:46:03.387Z,6.87
2022-12-14T17:48:49.902Z,6.91
2022-12-14T17:51:41.847Z,6.86
2022-12-14T17:54:29.297Z,6.78
2022-12-14T17:57:20.961Z,6.66
2022-12-14T18:00:25.937Z,6.87
2022-12-14T18:03:13.640Z,6.90
2022-12-14T18:05:59.803Z,6.88
2022-12-14T18:08:46.725Z,6.88
2022-12-14T18:11:33.159Z,6.87
2022-12-14T18:14:19.295Z,6.86
2022-12-14T18:17:11.075Z,6.83
2022-12-14T18:19:57.418Z,6.90
2022-12-14T18:22:44.964Z,6.97
2022-12-14T18:25:38.369Z,6.97
2022-12-14T18:28:25.019Z,6.96
2022-12-14T18:31:36.432Z,6.91
2022-12-14T18:34:22.808Z,6.96
2022-12-14T18:37:08.784Z,6.97
2022-12-14T18:39:54.751Z,6.97
2022-12-14T18:42:40.992Z,7.02
2022-12-14T18:45:30.270Z,6.99
2022-12-14T18:48:16.283Z,7.04
2022-12-14T18:51:02.483Z,7.03
2022-12-14T18:53:58.268Z,7.05
2022-12-14T18:56:44.131Z,7.08
2022-12-14T18:59:30.849Z,7.05
2022-12-14T19:02:17.251Z,7.03
2022-12-14T19:05:04.466Z,7.07
2022-12-14T19:07:50.859Z,7.03
2022-12-14T19:10:40.025Z,7.06
2022-12-14T19:13:26.484Z,7.04
2022-12-14T19:16:13.003Z,7.07
2022-12-14T19:18:59.751Z,7.06
2022-12-14T19:21:45.634Z,7.08
2022-12-14T19:24:31.560Z,7.00
2022-12-14T19:27:36.316Z,7.06
2022-12-14T19:30:24.270Z,7.09
2022-12-14T19:33:10.663Z,7.07
2022-12-14T19:35:57.267Z,7.06
2022-12-14T19:38:49.216Z,7.05
2022-12-14T19:41:35.826Z,7.12
2022-12-14T19:44:21.965Z,7.09
2022-12-14T19:47:10.554Z,7.14
2022-12-14T19:49:57.150Z,7.09
2022-12-14T19:52:43.865Z,7.04
2022-12-14T19:55:30.145Z,7.12
2022-12-14T19:58:16.262Z,7.15
2022-12-14T20:01:08.214Z,7.15
2022-12-14T20:03:54.312Z,7.14
2022-12-14T20:06:40.856Z,7.16
2022-12-14T20:09:27.726Z,7.17
2022-12-14T20:12:13.921Z,7.21
2022-12-14T20:15:00.065Z,7.22
2022-12-14T20:17:45.936Z,7.25
2022-12-14T20:20:32.255Z,7.28
2022-12-14T20:23:20.505Z,7.14
2022-12-14T20:26:14.420Z,7.10
2022-12-14T20:29:01.511Z,7.23
2022-12-14T20:31:47.688Z,7.20
2022-12-14T20:34:34.233Z,7.13
2022-12-14T20:37:20.408Z,7.25
2022-12-14T20:40:07.020Z,7.24
2022-12-14T20:42:54.249Z,7.28
2022-12-14T20:45:41.650Z,7.34
2022-12-14T20:48:27.506Z,7.28
2022-12-14T20:51:13.592Z,7.40
2022-12-14T20:53:59.819Z,7.31
2022-12-14T20:56:49.457Z,7.45
2022-12-14T20:59:35.742Z,7.50
2022-12-14T21:02:23.630Z,7.59
2022-12-14T21:05:09.639Z,7.64
2022-12-14T21:07:55.459Z,7.64
2022-12-14T21:10:41.945Z,7.70
2022-12-14T21:13:27.937Z,7.68
2022-12-14T21:16:14.233Z,7.82
2022-12-14T21:19:00.372Z,7.91
2022-12-14T21:21:51.639Z,7.74
2022-12-14T21:27:46.025Z,7.94
2022-12-14T21:30:32.245Z,8.00
2022-12-14T21:33:18.333Z,8.01
2022-12-14T21:36:08.779Z,7.97
2022-12-14T21:38:55.280Z,8.10
2022-12-14T21:42:00.378Z,8.11
2022-12-14T21:44:48.400Z,8.15
2022-12-14T21:47:34.412Z,8.17
2022-12-14T21:50:20.486Z,8.26
2022-12-14T21:53:06.522Z,8.23
2022-12-14T21:55:52.498Z,8.33
2022-12-14T21:58:38.650Z,8.27
2022-12-14T22:01:24.684Z,8.20
2022-12-14T22:04:11.178Z,8.25
2022-12-14T22:06:58.448Z,8.35
2022-12-14T22:09:50.073Z,8.26
2022-12-14T22:12:36.563Z,8.34
2022-12-14T22:15:22.821Z,8.30
2022-12-14T22:18:08.759Z,8.37
2022-12-14T22:21:03.018Z,8.32
2022-12-14T22:23:49.029Z,8.39
2022-12-14T22:26:35.232Z,8.43
2022-12-14T22:29:22.302Z,8.36
2022-12-14T22:32:08.544Z,8.43
2022-12-14T22:34:54.752Z,8.48
2022-12-14T22:37:40.875Z,8.39
2022-12-14T22:40:27.777Z,8.48
2022-12-14T22:43:14.452Z,8.49
2022-12-14T22:46:02.490Z,8.58
2022-12-14T22:48:48.685Z,8.49
2022-12-14T22:51:34.681Z,8.49
2022-12-14T22:54:26.212Z,8.62
2022-12-14T22:57:17.504Z,8.59
2022-12-14T23:00:11.411Z,8.67
2022-12-14T23:02:58.145Z,8.70
2022-12-14T23:05:44.287Z,8.73
2022-12-14T23:08:30.096Z,8.67
2022-12-14T23:11:34.786Z,8.79
2022-12-14T23:14:40.049Z,8.80
2022-12-14T23:17:44.721Z,8.79
2022-12-14T23:20:49.438Z,8.83
2022-12-14T23:23:57.172Z,8.86
2022-12-14T23:27:07.268Z,8.88
2022-12-14T23:30:14.203Z,8.86
2022-12-14T23:33:19.163Z,8.75
2022-12-14T23:36:24.317Z,8.85
2022-12-14T23:39:28.990Z,8.85
2022-12-14T23:42:33.727Z,8.88
2022-12-14T23:45:38.258Z,8.58
2022-12-14T23:48:42.451Z,8.79
2022-12-14T23:51:47.827Z,8.08
2022-12-14T23:54:52.583Z,8.10
2022-12-14T23:57:57.307Z,8.55
